sensor_id;sensor_type;location;lat;lon;timestamp;temperature;humidity
70456;DHT22;57916;51.996;5.180;2023-08-31T00:01:11;16.80;74.30
70456;DHT22;57916;51.996;5.180;2023-08-31T00:03:38;16.80;74.00
70456;DHT22;57916;51.996;5.180;2023-08-31T00:06:05;16.80;73.70
70456;DHT22;57916;51.996;5.180;2023-08-31T00:08:34;16.80;73.60
70456;DHT22;57916;51.996;5.180;2023-08-31T00:11:01;16.90;73.50
70456;DHT22;57916;51.996;5.180;2023-08-31T00:13:28;16.80;73.40
70456;DHT22;57916;51.996;5.180;2023-08-31T00:15:57;16.80;73.30
70456;DHT22;57916;51.996;5.180;2023-08-31T00:18:25;16.80;73.30
70456;DHT22;57916;51.996;5.180;2023-08-31T00:20:52;16.70;73.20
70456;DHT22;57916;51.996;5.180;2023-08-31T00:23:20;16.80;73.20
70456;DHT22;57916;51.996;5.180;2023-08-31T00:25:47;16.70;73.20
70456;DHT22;57916;51.996;5.180;2023-08-31T00:28:15;16.70;73.20
70456;DHT22;57916;51.996;5.180;2023-08-31T00:30:45;16.70;73.20
70456;DHT22;57916;51.996;5.180;2023-08-31T00:33:13;16.60;73.10
70456;DHT22;57916;51.996;5.180;2023-08-31T00:35:41;16.60;73.10
70456;DHT22;57916;51.996;5.180;2023-08-31T00:38:13;16.50;73.30
70456;DHT22;57916;51.996;5.180;2023-08-31T00:40:42;16.50;73.70
70456;DHT22;57916;51.996;5.180;2023-08-31T00:43:13;16.50;74.00
70456;DHT22;57916;51.996;5.180;2023-08-31T00:45:43;16.50;74.60
70456;DHT22;57916;51.996;5.180;2023-08-31T00:48:11;16.50;75.00
70456;DHT22;57916;51.996;5.180;2023-08-31T00:50:41;16.50;75.50
70456;DHT22;57916;51.996;5.180;2023-08-31T00:53:08;16.50;75.90
70456;DHT22;57916;51.996;5.180;2023-08-31T00:55:35;16.60;76.20
70456;DHT22;57916;51.996;5.180;2023-08-31T00:58:06;16.60;76.50
70456;DHT22;57916;51.996;5.180;2023-08-31T01:03:43;16.70;76.70
70456;DHT22;57916;51.996;5.180;2023-08-31T01:15:05;16.80;77.20
70456;DHT22;57916;51.996;5.180;2023-08-31T01:17:44;16.90;77.30
70456;DHT22;57916;51.996;5.180;2023-08-31T01:20:34;16.90;77.30
70456;DHT22;57916;51.996;5.180;2023-08-31T01:23:10;17.00;77.40
70456;DHT22;57916;51.996;5.180;2023-08-31T01:25:37;17.00;77.30
70456;DHT22;57916;51.996;5.180;2023-08-31T01:28:05;17.10;77.40
70456;DHT22;57916;51.996;5.180;2023-08-31T01:30:33;17.10;78.30
70456;DHT22;57916;51.996;5.180;2023-08-31T01:33:01;17.20;77.40
70456;DHT22;57916;51.996;5.180;2023-08-31T01:35:50;17.20;77.10
70456;DHT22;57916;51.996;5.180;2023-08-31T01:38:25;17.30;77.00
70456;DHT22;57916;51.996;5.180;2023-08-31T01:43:23;17.30;76.60
70456;DHT22;57916;51.996;5.180;2023-08-31T01:45:51;17.30;76.30
70456;DHT22;57916;51.996;5.180;2023-08-31T01:48:19;17.30;75.90
70456;DHT22;57916;51.996;5.180;2023-08-31T01:50:45;17.30;75.20
70456;DHT22;57916;51.996;5.180;2023-08-31T01:53:12;17.30;74.90
70456;DHT22;57916;51.996;5.180;2023-08-31T01:55:41;17.30;74.40
70456;DHT22;57916;51.996;5.180;2023-08-31T01:58:08;17.30;73.90
70456;DHT22;57916;51.996;5.180;2023-08-31T02:00:35;17.30;73.50
70456;DHT22;57916;51.996;5.180;2023-08-31T02:03:05;17.30;73.20
70456;DHT22;57916;51.996;5.180;2023-08-31T02:05:33;17.30;73.00
70456;DHT22;57916;51.996;5.180;2023-08-31T02:08:00;17.30;72.80
70456;DHT22;57916;51.996;5.180;2023-08-31T02:10:29;17.30;72.70
70456;DHT22;57916;51.996;5.180;2023-08-31T02:12:56;17.30;72.70
70456;DHT22;57916;51.996;5.180;2023-08-31T02:15:23;17.30;72.90
70456;DHT22;57916;51.996;5.180;2023-08-31T02:17:50;17.30;73.10
70456;DHT22;57916;51.996;5.180;2023-08-31T02:20:17;17.30;73.30
70456;DHT22;57916;51.996;5.180;2023-08-31T02:22:45;17.30;73.40
70456;DHT22;57916;51.996;5.180;2023-08-31T02:25:12;17.30;73.50
70456;DHT22;57916;51.996;5.180;2023-08-31T02:27:40;17.30;73.60
70456;DHT22;57916;51.996;5.180;2023-08-31T02:30:08;17.30;73.60
70456;DHT22;57916;51.996;5.180;2023-08-31T02:32:35;17.30;73.60
70456;DHT22;57916;51.996;5.180;2023-08-31T02:35:02;17.30;74.00
70456;DHT22;57916;51.996;5.180;2023-08-31T02:37:30;17.30;74.00
70456;DHT22;57916;51.996;5.180;2023-08-31T02:39:57;17.30;73.90
70456;DHT22;57916;51.996;5.180;2023-08-31T02:42:23;17.40;73.80
70456;DHT22;57916;51.996;5.180;2023-08-31T02:44:53;17.40;73.60
70456;DHT22;57916;51.996;5.180;2023-08-31T02:47:20;17.40;73.50
70456;DHT22;57916;51.996;5.180;2023-08-31T02:49:47;17.40;73.40
70456;DHT22;57916;51.996;5.180;2023-08-31T02:52:14;17.50;73.30
70456;DHT22;57916;51.996;5.180;2023-08-31T02:54:41;17.50;73.00
70456;DHT22;57916;51.996;5.180;2023-08-31T02:57:08;17.50;72.90
70456;DHT22;57916;51.996;5.180;2023-08-31T02:59:35;17.50;72.80
70456;DHT22;57916;51.996;5.180;2023-08-31T03:02:04;17.50;72.70
70456;DHT22;57916;51.996;5.180;2023-08-31T03:04:31;17.50;72.90
70456;DHT22;57916;51.996;5.180;2023-08-31T03:06:58;17.50;73.10
70456;DHT22;57916;51.996;5.180;2023-08-31T03:09:26;17.50;73.30
70456;DHT22;57916;51.996;5.180;2023-08-31T03:11:52;17.40;73.30
70456;DHT22;57916;51.996;5.180;2023-08-31T03:14:19;17.40;73.10
70456;DHT22;57916;51.996;5.180;2023-08-31T03:16:46;17.40;72.70
70456;DHT22;57916;51.996;5.180;2023-08-31T03:19:13;17.40;72.50
70456;DHT22;57916;51.996;5.180;2023-08-31T03:21:40;17.30;72.40
70456;DHT22;57916;51.996;5.180;2023-08-31T03:24:07;17.30;72.50
70456;DHT22;57916;51.996;5.180;2023-08-31T03:26:34;17.30;72.80
70456;DHT22;57916;51.996;5.180;2023-08-31T03:29:02;17.20;73.20
70456;DHT22;57916;51.996;5.180;2023-08-31T03:31:30;17.20;73.70
70456;DHT22;57916;51.996;5.180;2023-08-31T03:33:58;17.20;74.00
70456;DHT22;57916;51.996;5.180;2023-08-31T03:36:27;17.10;74.30
70456;DHT22;57916;51.996;5.180;2023-08-31T03:38:55;17.20;74.60
70456;DHT22;57916;51.996;5.180;2023-08-31T03:41:23;17.20;74.80
70456;DHT22;57916;51.996;5.180;2023-08-31T03:43:50;17.20;74.90
70456;DHT22;57916;51.996;5.180;2023-08-31T03:46:21;17.20;75.00
70456;DHT22;57916;51.996;5.180;2023-08-31T03:48:48;17.20;75.10
70456;DHT22;57916;51.996;5.180;2023-08-31T03:51:15;17.20;75.30
70456;DHT22;57916;51.996;5.180;2023-08-31T03:53:43;17.20;75.50
70456;DHT22;57916;51.996;5.180;2023-08-31T03:56:11;17.20;75.50
70456;DHT22;57916;51.996;5.180;2023-08-31T03:58:39;17.20;75.70
70456;DHT22;57916;51.996;5.180;2023-08-31T04:01:06;17.20;75.80
70456;DHT22;57916;51.996;5.180;2023-08-31T04:03:33;17.20;76.00
70456;DHT22;57916;51.996;5.180;2023-08-31T04:06:00;17.20;76.10
70456;DHT22;57916;51.996;5.180;2023-08-31T04:08:27;17.20;76.30
70456;DHT22;57916;51.996;5.180;2023-08-31T04:10:54;17.20;76.40
70456;DHT22;57916;51.996;5.180;2023-08-31T04:13:21;17.20;76.50
70456;DHT22;57916;51.996;5.180;2023-08-31T04:15:48;17.10;76.50
70456;DHT22;57916;51.996;5.180;2023-08-31T04:18:15;17.10;76.50
70456;DHT22;57916;51.996;5.180;2023-08-31T04:20:50;17.00;76.60
70456;DHT22;57916;51.996;5.180;2023-08-31T04:23:20;17.00;76.60
70456;DHT22;57916;51.996;5.180;2023-08-31T04:25:47;17.00;76.50
70456;DHT22;57916;51.996;5.180;2023-08-31T04:28:14;17.00;76.60
70456;DHT22;57916;51.996;5.180;2023-08-31T04:30:41;17.00;76.60
70456;DHT22;57916;51.996;5.180;2023-08-31T04:33:08;17.00;76.70
70456;DHT22;57916;51.996;5.180;2023-08-31T04:35:35;17.00;76.80
70456;DHT22;57916;51.996;5.180;2023-08-31T04:38:02;17.00;76.70
70456;DHT22;57916;51.996;5.180;2023-08-31T04:40:29;17.00;76.90
70456;DHT22;57916;51.996;5.180;2023-08-31T04:42:57;17.10;76.80
70456;DHT22;57916;51.996;5.180;2023-08-31T04:45:24;17.20;76.70
70456;DHT22;57916;51.996;5.180;2023-08-31T04:47:51;17.20;76.70
70456;DHT22;57916;51.996;5.180;2023-08-31T04:50:18;17.20;76.70
70456;DHT22;57916;51.996;5.180;2023-08-31T04:52:45;17.20;76.60
70456;DHT22;57916;51.996;5.180;2023-08-31T04:55:13;17.20;76.60
70456;DHT22;57916;51.996;5.180;2023-08-31T04:57:40;17.30;76.50
70456;DHT22;57916;51.996;5.180;2023-08-31T05:00:07;17.30;76.30
70456;DHT22;57916;51.996;5.180;2023-08-31T05:02:38;17.40;76.20
70456;DHT22;57916;51.996;5.180;2023-08-31T05:05:10;17.50;76.30
70456;DHT22;57916;51.996;5.180;2023-08-31T05:07:37;17.50;76.30
70456;DHT22;57916;51.996;5.180;2023-08-31T05:10:05;17.60;76.30
70456;DHT22;57916;51.996;5.180;2023-08-31T05:12:32;17.60;76.10
70456;DHT22;57916;51.996;5.180;2023-08-31T05:14:59;17.60;76.00
70456;DHT22;57916;51.996;5.180;2023-08-31T05:17:26;17.60;75.90
70456;DHT22;57916;51.996;5.180;2023-08-31T05:19:53;17.60;75.80
70456;DHT22;57916;51.996;5.180;2023-08-31T05:22:20;17.60;75.60
70456;DHT22;57916;51.996;5.180;2023-08-31T05:24:47;17.60;75.30
70456;DHT22;57916;51.996;5.180;2023-08-31T05:27:14;17.60;75.20
70456;DHT22;57916;51.996;5.180;2023-08-31T05:29:41;17.60;75.20
70456;DHT22;57916;51.996;5.180;2023-08-31T05:32:08;17.60;75.20
70456;DHT22;57916;51.996;5.180;2023-08-31T05:34:35;17.60;75.20
70456;DHT22;57916;51.996;5.180;2023-08-31T05:37:05;17.60;75.20
70456;DHT22;57916;51.996;5.180;2023-08-31T05:39:32;17.60;75.20
70456;DHT22;57916;51.996;5.180;2023-08-31T05:41:59;17.60;75.10
70456;DHT22;57916;51.996;5.180;2023-08-31T05:44:27;17.50;75.10
70456;DHT22;57916;51.996;5.180;2023-08-31T05:46:54;17.50;75.30
70456;DHT22;57916;51.996;5.180;2023-08-31T05:49:21;17.50;75.60
70456;DHT22;57916;51.996;5.180;2023-08-31T05:51:48;17.50;76.00
70456;DHT22;57916;51.996;5.180;2023-08-31T05:54:15;17.60;76.30
70456;DHT22;57916;51.996;5.180;2023-08-31T05:56:42;17.60;76.20
70456;DHT22;57916;51.996;5.180;2023-08-31T05:59:10;17.60;76.20
70456;DHT22;57916;51.996;5.180;2023-08-31T06:01:37;17.60;76.10
70456;DHT22;57916;51.996;5.180;2023-08-31T06:04:04;17.70;76.20
70456;DHT22;57916;51.996;5.180;2023-08-31T06:06:32;17.70;76.00
70456;DHT22;57916;51.996;5.180;2023-08-31T06:08:59;17.70;76.10
70456;DHT22;57916;51.996;5.180;2023-08-31T06:11:26;17.70;76.10
70456;DHT22;57916;51.996;5.180;2023-08-31T06:13:53;17.70;76.00
70456;DHT22;57916;51.996;5.180;2023-08-31T06:16:20;17.60;75.90
70456;DHT22;57916;51.996;5.180;2023-08-31T06:18:47;17.70;76.30
70456;DHT22;57916;51.996;5.180;2023-08-31T06:21:14;17.70;76.50
70456;DHT22;57916;51.996;5.180;2023-08-31T06:23:41;17.80;76.70
70456;DHT22;57916;51.996;5.180;2023-08-31T06:26:08;17.70;76.40
70456;DHT22;57916;51.996;5.180;2023-08-31T06:28:35;17.80;76.60
70456;DHT22;57916;51.996;5.180;2023-08-31T06:31:02;17.80;76.70
70456;DHT22;57916;51.996;5.180;2023-08-31T06:33:29;17.80;76.70
70456;DHT22;57916;51.996;5.180;2023-08-31T06:35:56;17.90;76.50
70456;DHT22;57916;51.996;5.180;2023-08-31T06:38:23;17.90;76.00
70456;DHT22;57916;51.996;5.180;2023-08-31T06:40:49;17.90;76.00
70456;DHT22;57916;51.996;5.180;2023-08-31T06:43:17;17.90;75.90
70456;DHT22;57916;51.996;5.180;2023-08-31T06:45:43;17.90;75.80
70456;DHT22;57916;51.996;5.180;2023-08-31T06:48:11;17.90;76.10
70456;DHT22;57916;51.996;5.180;2023-08-31T06:50:37;17.90;76.20
70456;DHT22;57916;51.996;5.180;2023-08-31T06:53:04;17.90;77.20
70456;DHT22;57916;51.996;5.180;2023-08-31T06:55:32;18.00;77.20
70456;DHT22;57916;51.996;5.180;2023-08-31T06:58:00;18.20;77.80
70456;DHT22;57916;51.996;5.180;2023-08-31T07:00:27;18.30;77.00
70456;DHT22;57916;51.996;5.180;2023-08-31T07:02:55;18.40;76.00
70456;DHT22;57916;51.996;5.180;2023-08-31T07:05:26;18.50;75.90
70456;DHT22;57916;51.996;5.180;2023-08-31T07:07:53;18.50;75.20
70456;DHT22;57916;51.996;5.180;2023-08-31T07:10:21;18.60;75.80
70456;DHT22;57916;51.996;5.180;2023-08-31T07:12:48;18.70;75.30
70456;DHT22;57916;51.996;5.180;2023-08-31T07:15:16;18.80;75.20
70456;DHT22;57916;51.996;5.180;2023-08-31T07:17:43;18.80;75.50
70456;DHT22;57916;51.996;5.180;2023-08-31T07:20:11;18.90;75.30
70456;DHT22;57916;51.996;5.180;2023-08-31T07:22:38;19.00;75.00
70456;DHT22;57916;51.996;5.180;2023-08-31T07:25:07;19.00;74.50
70456;DHT22;57916;51.996;5.180;2023-08-31T07:27:34;19.00;74.40
70456;DHT22;57916;51.996;5.180;2023-08-31T07:30:01;19.10;73.90
70456;DHT22;57916;51.996;5.180;2023-08-31T07:32:30;19.00;74.00
70456;DHT22;57916;51.996;5.180;2023-08-31T07:34:57;19.00;74.40
70456;DHT22;57916;51.996;5.180;2023-08-31T07:37:23;18.90;74.50
70456;DHT22;57916;51.996;5.180;2023-08-31T07:39:50;18.90;74.90
70456;DHT22;57916;51.996;5.180;2023-08-31T07:42:17;18.90;75.70
70456;DHT22;57916;51.996;5.180;2023-08-31T07:44:44;19.00;76.00
70456;DHT22;57916;51.996;5.180;2023-08-31T07:47:11;19.00;75.90
70456;DHT22;57916;51.996;5.180;2023-08-31T07:49:38;19.00;75.40
70456;DHT22;57916;51.996;5.180;2023-08-31T07:52:05;19.00;75.30
70456;DHT22;57916;51.996;5.180;2023-08-31T07:54:32;19.10;75.60
70456;DHT22;57916;51.996;5.180;2023-08-31T07:56:59;19.20;75.50
70456;DHT22;57916;51.996;5.180;2023-08-31T07:59:26;19.30;75.60
70456;DHT22;57916;51.996;5.180;2023-08-31T08:01:54;19.40;77.70
70456;DHT22;57916;51.996;5.180;2023-08-31T08:04:21;19.60;77.80
70456;DHT22;57916;51.996;5.180;2023-08-31T08:06:49;20.00;77.10
70456;DHT22;57916;51.996;5.180;2023-08-31T08:09:17;20.30;75.50
70456;DHT22;57916;51.996;5.180;2023-08-31T08:11:44;20.70;73.90
70456;DHT22;57916;51.996;5.180;2023-08-31T08:14:11;21.00;73.00
70456;DHT22;57916;51.996;5.180;2023-08-31T08:16:38;21.40;71.30
70456;DHT22;57916;51.996;5.180;2023-08-31T08:19:06;21.70;70.70
70456;DHT22;57916;51.996;5.180;2023-08-31T08:21:33;22.00;69.80
70456;DHT22;57916;51.996;5.180;2023-08-31T08:24:01;22.30;69.30
70456;DHT22;57916;51.996;5.180;2023-08-31T08:26:27;22.70;67.10
70456;DHT22;57916;51.996;5.180;2023-08-31T08:28:54;23.00;65.90
70456;DHT22;57916;51.996;5.180;2023-08-31T08:31:22;23.20;66.10
70456;DHT22;57916;51.996;5.180;2023-08-31T08:33:50;23.50;65.20
70456;DHT22;57916;51.996;5.180;2023-08-31T08:36:17;23.80;62.90
70456;DHT22;57916;51.996;5.180;2023-08-31T08:38:44;24.10;60.60
70456;DHT22;57916;51.996;5.180;2023-08-31T08:41:11;24.30;58.70
70456;DHT22;57916;51.996;5.180;2023-08-31T08:43:41;24.50;58.60
70456;DHT22;57916;51.996;5.180;2023-08-31T08:46:10;24.60;57.20
70456;DHT22;57916;51.996;5.180;2023-08-31T08:48:38;24.70;56.20
70456;DHT22;57916;51.996;5.180;2023-08-31T08:51:06;24.70;56.10
70456;DHT22;57916;51.996;5.180;2023-08-31T08:53:34;24.70;56.10
70456;DHT22;57916;51.996;5.180;2023-08-31T08:56:01;24.80;55.10
70456;DHT22;57916;51.996;5.180;2023-08-31T08:58:28;24.90;55.50
70456;DHT22;57916;51.996;5.180;2023-08-31T09:00:55;25.10;54.80
70456;DHT22;57916;51.996;5.180;2023-08-31T09:03:25;25.20;53.40
70456;DHT22;57916;51.996;5.180;2023-08-31T09:05:52;25.30;53.00
70456;DHT22;57916;51.996;5.180;2023-08-31T09:08:26;25.10;52.30
70456;DHT22;57916;51.996;5.180;2023-08-31T09:10:55;24.90;52.30
70456;DHT22;57916;51.996;5.180;2023-08-31T09:13:28;24.70;53.40
70456;DHT22;57916;51.996;5.180;2023-08-31T09:15:57;24.50;51.50
70456;DHT22;57916;51.996;5.180;2023-08-31T09:18:31;24.30;51.20
70456;DHT22;57916;51.996;5.180;2023-08-31T09:21:00;24.00;51.90
70456;DHT22;57916;51.996;5.180;2023-08-31T09:23:27;23.80;52.90
70456;DHT22;57916;51.996;5.180;2023-08-31T09:25:55;23.70;54.50
70456;DHT22;57916;51.996;5.180;2023-08-31T09:28:24;23.90;52.80
70456;DHT22;57916;51.996;5.180;2023-08-31T09:31:06;23.90;52.20
70456;DHT22;57916;51.996;5.180;2023-08-31T09:33:37;24.10;50.90
70456;DHT22;57916;51.996;5.180;2023-08-31T09:36:06;24.20;50.50
70456;DHT22;57916;51.996;5.180;2023-08-31T09:38:41;24.40;50.40
70456;DHT22;57916;51.996;5.180;2023-08-31T09:41:10;24.80;50.10
70456;DHT22;57916;51.996;5.180;2023-08-31T09:43:37;25.00;47.60
70456;DHT22;57916;51.996;5.180;2023-08-31T09:46:04;25.20;47.10
70456;DHT22;57916;51.996;5.180;2023-08-31T09:48:32;25.50;45.70
70456;DHT22;57916;51.996;5.180;2023-08-31T09:51:02;25.50;45.00
70456;DHT22;57916;51.996;5.180;2023-08-31T09:53:31;25.60;44.90
70456;DHT22;57916;51.996;5.180;2023-08-31T09:55:58;25.80;46.10
70456;DHT22;57916;51.996;5.180;2023-08-31T09:58:27;26.10;45.40
70456;DHT22;57916;51.996;5.180;2023-08-31T10:00:55;26.20;44.40
70456;DHT22;57916;51.996;5.180;2023-08-31T10:03:23;26.50;45.40
70456;DHT22;57916;51.996;5.180;2023-08-31T10:05:51;26.70;44.80
70456;DHT22;57916;51.996;5.180;2023-08-31T10:08:18;26.90;43.80
70456;DHT22;57916;51.996;5.180;2023-08-31T10:10:46;27.00;42.90
70456;DHT22;57916;51.996;5.180;2023-08-31T10:13:14;27.10;41.90
70456;DHT22;57916;51.996;5.180;2023-08-31T10:15:43;27.20;43.00
70456;DHT22;57916;51.996;5.180;2023-08-31T10:18:11;27.40;40.30
70456;DHT22;57916;51.996;5.180;2023-08-31T10:20:42;27.40;40.10
70456;DHT22;57916;51.996;5.180;2023-08-31T10:23:09;27.40;39.30
70456;DHT22;57916;51.996;5.180;2023-08-31T10:28:25;27.50;40.50
70456;DHT22;57916;51.996;5.180;2023-08-31T10:31:02;27.60;40.00
70456;DHT22;57916;51.996;5.180;2023-08-31T10:33:41;27.70;40.20
70456;DHT22;57916;51.996;5.180;2023-08-31T10:36:19;27.80;39.40
70456;DHT22;57916;51.996;5.180;2023-08-31T10:41:23;28.00;37.80
70456;DHT22;57916;51.996;5.180;2023-08-31T10:43:55;27.90;35.80
70456;DHT22;57916;51.996;5.180;2023-08-31T10:49:12;27.90;35.90
70456;DHT22;57916;51.996;5.180;2023-08-31T10:51:43;27.90;35.80
70456;DHT22;57916;51.996;5.180;2023-08-31T10:59:51;28.10;36.80
70456;DHT22;57916;51.996;5.180;2023-08-31T11:05:00;28.40;37.00
70456;DHT22;57916;51.996;5.180;2023-08-31T11:07:30;28.40;35.40
70456;DHT22;57916;51.996;5.180;2023-08-31T11:10:08;28.30;34.60
70456;DHT22;57916;51.996;5.180;2023-08-31T11:12:39;28.00;34.10
70456;DHT22;57916;51.996;5.180;2023-08-31T11:15:07;27.80;35.00
70456;DHT22;57916;51.996;5.180;2023-08-31T11:17:34;27.60;36.60
70456;DHT22;57916;51.996;5.180;2023-08-31T11:20:01;27.50;36.70
70456;DHT22;57916;51.996;5.180;2023-08-31T11:22:32;27.60;37.00
70456;DHT22;57916;51.996;5.180;2023-08-31T11:25:02;27.60;37.90
70456;DHT22;57916;51.996;5.180;2023-08-31T11:27:29;27.60;38.30
70456;DHT22;57916;51.996;5.180;2023-08-31T11:29:56;27.60;37.20
70456;DHT22;57916;51.996;5.180;2023-08-31T11:32:27;27.60;37.30
70456;DHT22;57916;51.996;5.180;2023-08-31T11:34:53;27.70;37.80
70456;DHT22;57916;51.996;5.180;2023-08-31T11:37:20;27.80;38.10
70456;DHT22;57916;51.996;5.180;2023-08-31T11:39:49;27.80;36.70
70456;DHT22;57916;51.996;5.180;2023-08-31T11:42:19;27.80;35.80
70456;DHT22;57916;51.996;5.180;2023-08-31T11:44:52;27.60;37.20
70456;DHT22;57916;51.996;5.180;2023-08-31T11:47:20;27.50;37.60
70456;DHT22;57916;51.996;5.180;2023-08-31T11:49:47;27.40;37.50
70456;DHT22;57916;51.996;5.180;2023-08-31T11:52:15;27.20;37.20
70456;DHT22;57916;51.996;5.180;2023-08-31T11:54:43;27.10;39.10
70456;DHT22;57916;51.996;5.180;2023-08-31T11:57:10;27.00;37.90
70456;DHT22;57916;51.996;5.180;2023-08-31T11:59:38;27.00;38.10
70456;DHT22;57916;51.996;5.180;2023-08-31T12:02:09;26.90;37.60
70456;DHT22;57916;51.996;5.180;2023-08-31T12:04:46;27.00;37.10
70456;DHT22;57916;51.996;5.180;2023-08-31T12:07:17;27.20;38.00
70456;DHT22;57916;51.996;5.180;2023-08-31T12:09:45;27.30;36.40
70456;DHT22;57916;51.996;5.180;2023-08-31T12:12:21;27.40;37.50
70456;DHT22;57916;51.996;5.180;2023-08-31T12:14:52;27.50;36.80
70456;DHT22;57916;51.996;5.180;2023-08-31T12:17:19;27.70;37.90
70456;DHT22;57916;51.996;5.180;2023-08-31T12:19:46;27.80;37.20
70456;DHT22;57916;51.996;5.180;2023-08-31T12:22:13;27.90;36.90
70456;DHT22;57916;51.996;5.180;2023-08-31T12:24:41;28.10;36.80
70456;DHT22;57916;51.996;5.180;2023-08-31T12:27:09;28.30;38.00
70456;DHT22;57916;51.996;5.180;2023-08-31T12:29:36;28.50;35.80
70456;DHT22;57916;51.996;5.180;2023-08-31T12:32:03;28.60;35.60
70456;DHT22;57916;51.996;5.180;2023-08-31T12:34:30;28.60;37.10
70456;DHT22;57916;51.996;5.180;2023-08-31T12:37:00;28.60;34.00
70456;DHT22;57916;51.996;5.180;2023-08-31T12:39:29;28.60;35.40
70456;DHT22;57916;51.996;5.180;2023-08-31T12:41:56;28.60;34.90
70456;DHT22;57916;51.996;5.180;2023-08-31T12:44:38;28.70;35.00
70456;DHT22;57916;51.996;5.180;2023-08-31T12:47:05;28.60;33.40
70456;DHT22;57916;51.996;5.180;2023-08-31T12:49:32;28.60;35.00
70456;DHT22;57916;51.996;5.180;2023-08-31T12:51:59;28.70;33.80
70456;DHT22;57916;51.996;5.180;2023-08-31T12:54:26;28.60;32.80
70456;DHT22;57916;51.996;5.180;2023-08-31T12:56:53;28.60;34.00
70456;DHT22;57916;51.996;5.180;2023-08-31T12:59:20;28.60;37.90
70456;DHT22;57916;51.996;5.180;2023-08-31T13:01:47;28.60;35.20
70456;DHT22;57916;51.996;5.180;2023-08-31T13:04:14;28.60;34.40
70456;DHT22;57916;51.996;5.180;2023-08-31T13:06:41;28.50;35.20
70456;DHT22;57916;51.996;5.180;2023-08-31T13:09:08;28.50;35.20
70456;DHT22;57916;51.996;5.180;2023-08-31T13:11:35;28.30;35.30
70456;DHT22;57916;51.996;5.180;2023-08-31T13:14:02;28.10;35.30
70456;DHT22;57916;51.996;5.180;2023-08-31T13:16:30;27.70;34.70
70456;DHT22;57916;51.996;5.180;2023-08-31T13:18:57;27.40;35.70
70456;DHT22;57916;51.996;5.180;2023-08-31T13:21:24;27.10;37.70
70456;DHT22;57916;51.996;5.180;2023-08-31T13:23:51;27.00;38.10
70456;DHT22;57916;51.996;5.180;2023-08-31T13:26:17;26.80;37.80
70456;DHT22;57916;51.996;5.180;2023-08-31T13:28:44;26.70;38.70
70456;DHT22;57916;51.996;5.180;2023-08-31T13:31:11;26.70;38.90
70456;DHT22;57916;51.996;5.180;2023-08-31T13:33:39;26.60;40.00
70456;DHT22;57916;51.996;5.180;2023-08-31T13:36:06;26.70;39.90
70456;DHT22;57916;51.996;5.180;2023-08-31T13:38:33;26.60;40.40
70456;DHT22;57916;51.996;5.180;2023-08-31T13:41:00;26.60;38.50
70456;DHT22;57916;51.996;5.180;2023-08-31T13:43:27;26.50;38.80
70456;DHT22;57916;51.996;5.180;2023-08-31T13:45:54;26.40;39.30
70456;DHT22;57916;51.996;5.180;2023-08-31T13:48:21;26.30;39.50
70456;DHT22;57916;51.996;5.180;2023-08-31T13:50:49;26.20;39.40
70456;DHT22;57916;51.996;5.180;2023-08-31T13:53:16;26.10;39.80
70456;DHT22;57916;51.996;5.180;2023-08-31T13:55:43;26.00;39.70
70456;DHT22;57916;51.996;5.180;2023-08-31T13:58:10;26.00;40.90
70456;DHT22;57916;51.996;5.180;2023-08-31T14:00:38;25.90;40.40
70456;DHT22;57916;51.996;5.180;2023-08-31T14:03:05;25.90;41.30
70456;DHT22;57916;51.996;5.180;2023-08-31T14:05:32;25.80;40.30
70456;DHT22;57916;51.996;5.180;2023-08-31T14:08:00;25.70;40.50
70456;DHT22;57916;51.996;5.180;2023-08-31T14:10:31;25.60;41.00
70456;DHT22;57916;51.996;5.180;2023-08-31T14:12:59;25.50;41.20
70456;DHT22;57916;51.996;5.180;2023-08-31T14:15:26;25.50;40.60
70456;DHT22;57916;51.996;5.180;2023-08-31T14:17:53;25.50;42.70
70456;DHT22;57916;51.996;5.180;2023-08-31T14:20:21;25.40;43.00
70456;DHT22;57916;51.996;5.180;2023-08-31T14:22:49;25.40;42.40
70456;DHT22;57916;51.996;5.180;2023-08-31T14:25:17;25.40;41.30
70456;DHT22;57916;51.996;5.180;2023-08-31T14:27:46;25.40;41.60
70456;DHT22;57916;51.996;5.180;2023-08-31T14:30:13;25.40;41.10
70456;DHT22;57916;51.996;5.180;2023-08-31T14:32:40;25.40;43.30
70456;DHT22;57916;51.996;5.180;2023-08-31T14:35:07;25.40;43.00
70456;DHT22;57916;51.996;5.180;2023-08-31T14:37:34;25.40;42.60
70456;DHT22;57916;51.996;5.180;2023-08-31T14:40:02;25.40;42.00
70456;DHT22;57916;51.996;5.180;2023-08-31T14:42:28;25.40;42.10
70456;DHT22;57916;51.996;5.180;2023-08-31T14:44:55;25.30;42.40
70456;DHT22;57916;51.996;5.180;2023-08-31T14:47:22;25.40;42.10
70456;DHT22;57916;51.996;5.180;2023-08-31T14:49:49;25.40;42.00
70456;DHT22;57916;51.996;5.180;2023-08-31T14:52:16;25.30;42.80
70456;DHT22;57916;51.996;5.180;2023-08-31T14:54:43;25.30;43.10
70456;DHT22;57916;51.996;5.180;2023-08-31T14:57:10;25.30;42.60
70456;DHT22;57916;51.996;5.180;2023-08-31T14:59:37;25.20;43.10
70456;DHT22;57916;51.996;5.180;2023-08-31T15:02:04;25.30;42.90
70456;DHT22;57916;51.996;5.180;2023-08-31T15:04:32;25.30;42.10
70456;DHT22;57916;51.996;5.180;2023-08-31T15:06:59;25.20;42.00
70456;DHT22;57916;51.996;5.180;2023-08-31T15:09:27;25.20;42.50
70456;DHT22;57916;51.996;5.180;2023-08-31T15:11:54;25.10;41.70
70456;DHT22;57916;51.996;5.180;2023-08-31T15:14:21;25.10;41.20
70456;DHT22;57916;51.996;5.180;2023-08-31T15:16:48;25.00;42.20
70456;DHT22;57916;51.996;5.180;2023-08-31T15:19:15;25.00;42.20
70456;DHT22;57916;51.996;5.180;2023-08-31T15:21:41;24.90;41.20
70456;DHT22;57916;51.996;5.180;2023-08-31T15:24:08;24.80;43.00
70456;DHT22;57916;51.996;5.180;2023-08-31T15:26:35;24.70;42.80
70456;DHT22;57916;51.996;5.180;2023-08-31T15:29:02;24.70;43.10
70456;DHT22;57916;51.996;5.180;2023-08-31T15:31:30;24.70;43.50
70456;DHT22;57916;51.996;5.180;2023-08-31T15:33:58;24.70;43.80
70456;DHT22;57916;51.996;5.180;2023-08-31T15:36:24;24.80;43.60
70456;DHT22;57916;51.996;5.180;2023-08-31T15:38:52;24.80;43.70
70456;DHT22;57916;51.996;5.180;2023-08-31T15:41:19;24.80;43.40
70456;DHT22;57916;51.996;5.180;2023-08-31T15:43:46;24.80;44.00
70456;DHT22;57916;51.996;5.180;2023-08-31T15:46:13;24.80;43.20
70456;DHT22;57916;51.996;5.180;2023-08-31T15:48:42;24.80;44.00
70456;DHT22;57916;51.996;5.180;2023-08-31T15:51:09;24.80;43.00
70456;DHT22;57916;51.996;5.180;2023-08-31T15:53:36;24.80;42.60
70456;DHT22;57916;51.996;5.180;2023-08-31T15:56:03;24.80;42.80
70456;DHT22;57916;51.996;5.180;2023-08-31T15:58:31;24.80;42.10
70456;DHT22;57916;51.996;5.180;2023-08-31T16:00:58;24.80;42.30
70456;DHT22;57916;51.996;5.180;2023-08-31T16:03:29;24.80;43.10
70456;DHT22;57916;51.996;5.180;2023-08-31T16:06:00;24.70;42.70